createdAt,value
2019-02-27T00:04:35.573Z,18.30
2019-02-27T00:09:27.409Z,12.00
2019-02-27T00:14:22.598Z,18.80
2019-02-27T00:19:14.413Z,15.90
2019-02-27T00:24:06.401Z,11.40
2019-02-27T00:28:58.362Z,19.70
2019-02-27T00:33:50.425Z,13.70
2019-02-27T00:38:42.187Z,18.50
2019-02-27T00:43:34.178Z,16.20
2019-02-27T00:48:26.749Z,13.10
2019-02-27T00:53:18.271Z,12.60
2019-02-27T07:58:24.310Z,10.60
2019-02-27T08:03:17.056Z,12.60
2019-02-27T08:08:09.069Z,10.20
2019-02-27T08:13:01.129Z,11.10
2019-02-27T08:17:57.377Z,9.80
2019-02-27T08:22:49.611Z,13.60
2019-02-27T08:27:43.725Z,10.70
2019-02-27T08:32:37.608Z,20.10
2019-02-27T08:37:28.310Z,18.10
2019-02-27T08:42:20.285Z,17.60
2019-02-27T08:47:14.094Z,19.10
2019-02-27T08:52:05.107Z,18.70
2019-02-27T08:56:58.531Z,20.10
2019-02-27T09:01:55.145Z,16.80
2019-02-27T09:06:46.032Z,11.50
2019-02-27T09:11:39.956Z,21.50
2019-02-27T09:16:30.931Z,26.10
2019-02-27T09:21:24.894Z,17.90
2019-02-27T09:26:18.525Z,14.00
2019-02-27T09:31:09.985Z,11.00
2019-02-27T09:36:02.547Z,14.00
2019-02-27T09:40:53.984Z,9.30
2019-02-27T09:45:46.458Z,9.60
2019-02-27T09:50:38.163Z,15.10
2019-02-27T09:55:29.667Z,15.00
2019-02-27T10:00:25.796Z,9.80
2019-02-27T10:05:16.534Z,13.90
2019-02-27T10:10:10.367Z,10.80
2019-02-27T10:15:02.243Z,12.70
2019-02-27T10:19:55.180Z,12.60
2019-02-27T10:24:51.863Z,9.40
2019-02-27T10:29:47.487Z,9.50
2019-02-27T10:34:38.282Z,13.30
2019-02-27T10:39:29.500Z,7.90
2019-02-27T10:44:21.136Z,14.10
2019-02-27T10:49:14.773Z,8.40
2019-02-27T10:54:05.560Z,11.60
2019-02-27T10:58:56.751Z,12.80
2019-02-27T11:03:48.421Z,12.20
2019-02-27T11:08:41.271Z,18.80
2019-02-27T11:13:31.914Z,9.00
2019-02-27T11:18:22.909Z,11.00
2019-02-27T11:23:29.561Z,14.40
2019-02-27T11:28:18.709Z,12.60
2019-02-27T11:33:09.786Z,9.30
2019-02-27T11:38:01.395Z,6.60
2019-02-27T11:42:53.307Z,11.30
2019-02-27T11:47:47.937Z,15.60
2019-02-27T11:52:46.166Z,7.40
2019-02-27T11:57:38.959Z,8.30
2019-02-27T12:02:36.966Z,11.10
2019-02-27T12:07:28.410Z,6.90
2019-02-27T12:12:23.251Z,6.90
2019-02-27T12:17:14.883Z,8.50
2019-02-27T12:22:07.195Z,9.90
2019-02-27T12:27:00.146Z,8.00
2019-02-27T12:31:51.793Z,10.60
2019-02-27T12:36:44.076Z,7.30
2019-02-27T12:41:35.717Z,16.00
2019-02-27T12:46:27.597Z,10.00
2019-02-27T12:51:23.899Z,9.60
2019-02-27T12:56:15.577Z,9.40
2019-02-27T13:01:06.842Z,10.30
2019-02-27T13:06:00.879Z,8.30
2019-02-27T13:10:52.221Z,7.80
2019-02-27T13:15:44.251Z,11.00
2019-02-27T13:20:36.096Z,9.80
2019-02-27T13:25:27.674Z,9.90
2019-02-27T13:30:21.383Z,10.00
2019-02-27T13:35:14.012Z,13.00
2019-02-27T13:40:07.682Z,7.80
2019-02-27T13:44:59.425Z,8.70
2019-02-27T13:49:51.985Z,10.70
2019-02-27T13:54:44.419Z,7.80
2019-02-27T13:59:36.384Z,8.00
2019-02-27T14:04:28.925Z,9.30
2019-02-27T14:09:21.456Z,8.70
2019-02-27T14:14:15.026Z,7.30
2019-02-27T14:19:09.423Z,10.90
2019-02-27T14:24:01.351Z,6.20
2019-02-27T14:28:55.114Z,4.80
2019-02-27T14:33:47.107Z,5.40
2019-02-27T14:38:42.918Z,5.20
2019-02-27T14:43:34.057Z,6.70
2019-02-27T14:48:25.241Z,6.00
2019-02-27T14:53:18.896Z,4.70
2019-02-27T14:58:09.248Z,4.90
2019-02-27T15:03:02.184Z,5.10
2019-02-27T15:07:54.581Z,5.80
2019-02-27T15:12:45.745Z,4.90
2019-02-27T15:17:36.973Z,4.90
2019-02-27T15:22:28.589Z,5.40
2019-02-27T15:27:22.368Z,6.00
2019-02-27T15:32:16.272Z,4.90
2019-02-27T15:37:07.476Z,6.40
2019-02-27T15:41:58.909Z,5.10
2019-02-27T15:46:53.395Z,6.20
2019-02-27T15:51:47.114Z,6.30
2019-02-27T15:56:41.672Z,6.30
2019-02-27T16:01:35.602Z,6.50
2019-02-27T16:06:27.054Z,4.90
2019-02-27T16:11:18.935Z,8.00
2019-02-27T16:16:11.047Z,6.80
2019-02-27T16:21:03.308Z,4.80
2019-02-27T16:25:56.545Z,6.00
2019-02-27T16:30:48.395Z,6.10
2019-02-27T16:35:41.907Z,6.20
2019-02-27T16:40:36.252Z,7.50
2019-02-27T16:45:31.815Z,8.00
2019-02-27T16:50:28.112Z,5.50
2019-02-27T16:55:20.816Z,8.60
2019-02-27T17:00:11.925Z,7.40
2019-02-27T17:05:08.765Z,6.90
2019-02-27T17:10:00.258Z,6.20
2019-02-27T17:14:52.284Z,6.60
2019-02-27T17:19:49.559Z,12.70
2019-02-27T17:24:43.554Z,7.40
2019-02-27T17:29:35.340Z,7.90
2019-02-27T17:34:27.111Z,8.40
2019-02-27T17:39:21.919Z,7.40
2019-02-27T17:44:19.694Z,8.40
2019-02-27T17:49:11.372Z,12.80
2019-02-27T17:54:03.129Z,11.20
2019-02-27T17:58:55.085Z,17.20
2019-02-27T18:03:46.806Z,14.00
2019-02-27T18:08:38.645Z,21.00
2019-02-27T18:13:35.183Z,12.30
2019-02-27T18:18:26.398Z,7.20
2019-02-27T18:23:18.279Z,8.80
2019-02-27T18:28:14.882Z,13.90
2019-02-27T18:33:06.712Z,12.30
2019-02-27T18:37:58.626Z,17.00
2019-02-27T18:42:54.936Z,11.80
2019-02-27T18:47:50.218Z,10.50
2019-02-27T18:52:42.258Z,9.30
2019-02-27T18:57:34.356Z,9.10
2019-02-27T19:02:26.334Z,7.00
2019-02-27T19:07:20.138Z,13.20
2019-02-27T19:12:12.004Z,10.70
2019-02-27T19:17:04.019Z,9.40
2019-02-27T19:21:56.298Z,8.80
2019-02-27T19:26:49.470Z,17.40
2019-02-27T19:31:41.912Z,10.30
2019-02-27T19:36:34.145Z,10.80
2019-02-27T19:41:26.217Z,12.50
2019-02-27T19:46:18.236Z,9.10
2019-02-27T19:51:10.203Z,10.50
2019-02-27T19:56:02.451Z,10.40
2019-02-27T20:00:54.423Z,9.10
2019-02-27T20:05:46.615Z,12.20
2019-02-27T20:10:44.138Z,15.40
2019-02-27T20:15:35.971Z,9.00
2019-02-27T20:20:29.994Z,12.90
2019-02-27T20:25:21.457Z,10.80
2019-02-27T20:30:14.206Z,13.20
2019-02-27T20:35:06.333Z,11.00
2019-02-27T20:39:59.465Z,15.10
2019-02-27T20:44:52.674Z,12.20
2019-02-27T20:49:45.449Z,11.30
2019-02-27T20:54:38.826Z,11.70
2019-02-27T20:59:32.965Z,14.30
2019-02-27T21:04:24.540Z,12.60
2019-02-27T21:09:16.633Z,19.50
2019-02-27T21:14:08.747Z,9.30
2019-02-27T21:19:02.482Z,10.10
2019-02-27T21:23:54.304Z,15.30
2019-02-27T21:28:46.307Z,11.50
2019-02-27T21:33:47.615Z,11.80
2019-02-27T21:38:39.473Z,15.30
2019-02-27T21:43:31.596Z,11.80
2019-02-27T21:48:23.388Z,15.50
2019-02-27T21:53:18.069Z,14.50
2019-02-27T21:58:19.923Z,11.00
2019-02-27T22:03:09.877Z,15.80
2019-02-27T22:08:01.605Z,12.50
2019-02-27T22:12:56.362Z,14.90
2019-02-27T22:17:50.445Z,19.20
2019-02-27T22:22:42.345Z,16.90
2019-02-27T22:27:34.303Z,17.30
2019-02-27T22:32:26.440Z,16.40
2019-02-27T22:37:18.630Z,13.80
2019-02-27T22:42:14.118Z,23.20
2019-02-27T22:47:06.045Z,17.20
2019-02-27T22:51:57.951Z,17.30
2019-02-27T22:56:51.293Z,15.10
2019-02-27T23:01:42.911Z,14.90
2019-02-27T23:06:39.867Z,19.80
2019-02-27T23:11:37.422Z,17.80
2019-02-27T23:16:30.588Z,15.50
2019-02-27T23:21:22.378Z,17.10
2019-02-27T23:26:19.738Z,17.50
2019-02-27T23:31:11.701Z,20.40
2019-02-27T23:36:03.442Z,19.30
2019-02-27T23:40:55.365Z,15.40
2019-02-27T23:45:47.086Z,15.30
2019-02-27T23:50:42.578Z,20.20
2019-02-27T23:55:33.810Z,14.30
